Lemington, Vermont
Current Conditions -  °F | °C
As of 3:55 AM on Saturday 25 Oct 2014 (Local Time) from KCDA Reporting Station
Clear Clear  
Wind Chill: 33°   Ceiling: Unl
Heat Index: 33°   Visibility: 10mi
Dew Point: 31°   Wind: 0mph
Humidity: 93%   Direction: NA
Pressure: 29.76"   Gusts: NA
Location:  44.7348°N, 71.6296°W
Report Text: KCDA 250755Z AUTO 00000KT 10SM CLR 01/00 A2976 RMK AO2 T00051005
Loading
Personal Weather Stations






























Interactive Weather Map
Tropical Storm Tracking
New forecast layout! Learn more

10-Day Weather Forecast

Advertisements
Track Severe Weather on mobile